sensor_id;sensor_type;location;lat;lon;timestamp;P1;durP1;ratioP1;P2;durP2;ratioP2
23228;SDS011;11783;50.350;6.576;2022-12-18T00:01:05;22.92;;;10.30;;
23228;SDS011;11783;50.350;6.576;2022-12-18T00:03:38;16.27;;;8.80;;
23228;SDS011;11783;50.350;6.576;2022-12-18T00:06:03;20.73;;;9.15;;
23228;SDS011;11783;50.350;6.576;2022-12-18T00:08:29;20.70;;;9.57;;
23228;SDS011;11783;50.350;6.576;2022-12-18T00:10:54;22.45;;;9.65;;
23228;SDS011;11783;50.350;6.576;2022-12-18T00:13:20;21.55;;;9.93;;
23228;SDS011;11783;50.350;6.576;2022-12-18T00:15:45;23.60;;;10.05;;
23228;SDS011;11783;50.350;6.576;2022-12-18T00:18:11;19.33;;;8.60;;
23228;SDS011;11783;50.350;6.576;2022-12-18T00:20:37;19.45;;;9.77;;
23228;SDS011;11783;50.350;6.576;2022-12-18T00:23:03;21.17;;;8.80;;
23228;SDS011;11783;50.350;6.576;2022-12-18T00:25:32;18.80;;;8.32;;
23228;SDS011;11783;50.350;6.576;2022-12-18T00:27:58;17.67;;;8.43;;
23228;SDS011;11783;50.350;6.576;2022-12-18T00:30:23;17.90;;;8.52;;
23228;SDS011;11783;50.350;6.576;2022-12-18T00:32:49;19.08;;;8.23;;
23228;SDS011;11783;50.350;6.576;2022-12-18T00:35:14;16.25;;;7.57;;
23228;SDS011;11783;50.350;6.576;2022-12-18T00:37:39;18.23;;;8.38;;
23228;SDS011;11783;50.350;6.576;2022-12-18T00:40:05;16.48;;;7.53;;
23228;SDS011;11783;50.350;6.576;2022-12-18T00:42:30;14.45;;;7.22;;
23228;SDS011;11783;50.350;6.576;2022-12-18T00:45:14;18.05;;;8.15;;
23228;SDS011;11783;50.350;6.576;2022-12-18T00:47:40;15.98;;;7.68;;
23228;SDS011;11783;50.350;6.576;2022-12-18T00:50:05;15.75;;;7.75;;
23228;SDS011;11783;50.350;6.576;2022-12-18T00:52:31;17.65;;;7.65;;
23228;SDS011;11783;50.350;6.576;2022-12-18T00:54:56;14.70;;;6.75;;
23228;SDS011;11783;50.350;6.576;2022-12-18T00:57:22;15.75;;;7.35;;
23228;SDS011;11783;50.350;6.576;2022-12-18T00:59:47;12.25;;;6.28;;
23228;SDS011;11783;50.350;6.576;2022-12-18T01:02:12;14.88;;;6.05;;
23228;SDS011;11783;50.350;6.576;2022-12-18T01:04:38;12.68;;;6.30;;
23228;SDS011;11783;50.350;6.576;2022-12-18T01:07:03;14.57;;;7.43;;
23228;SDS011;11783;50.350;6.576;2022-12-18T01:09:28;16.23;;;7.35;;
23228;SDS011;11783;50.350;6.576;2022-12-18T01:11:54;14.23;;;7.32;;
23228;SDS011;11783;50.350;6.576;2022-12-18T01:14:19;18.63;;;7.47;;
23228;SDS011;11783;50.350;6.576;2022-12-18T01:16:44;15.38;;;6.95;;
23228;SDS011;11783;50.350;6.576;2022-12-18T01:19:09;18.10;;;9.05;;
23228;SDS011;11783;50.350;6.576;2022-12-18T01:21:35;18.67;;;8.30;;
23228;SDS011;11783;50.350;6.576;2022-12-18T01:24:00;19.30;;;8.18;;
23228;SDS011;11783;50.350;6.576;2022-12-18T01:26:26;19.92;;;8.88;;
23228;SDS011;11783;50.350;6.576;2022-12-18T01:28:55;20.27;;;9.18;;
23228;SDS011;11783;50.350;6.576;2022-12-18T01:31:22;18.52;;;8.18;;
23228;SDS011;11783;50.350;6.576;2022-12-18T01:33:49;15.93;;;7.65;;
23228;SDS011;11783;50.350;6.576;2022-12-18T01:38:46;20.17;;;8.32;;
23228;SDS011;11783;50.350;6.576;2022-12-18T01:41:14;18.38;;;7.80;;
23228;SDS011;11783;50.350;6.576;2022-12-18T01:43:53;15.85;;;7.47;;
23228;SDS011;11783;50.350;6.576;2022-12-18T01:46:20;18.92;;;7.63;;
23228;SDS011;11783;50.350;6.576;2022-12-18T01:48:48;15.57;;;8.10;;
23228;SDS011;11783;50.350;6.576;2022-12-18T01:51:17;16.80;;;7.53;;
23228;SDS011;11783;50.350;6.576;2022-12-18T01:53:43;17.23;;;7.03;;
23228;SDS011;11783;50.350;6.576;2022-12-18T01:56:15;18.23;;;7.13;;
23228;SDS011;11783;50.350;6.576;2022-12-18T01:58:48;14.90;;;6.90;;
23228;SDS011;11783;50.350;6.576;2022-12-18T02:01:15;11.45;;;5.93;;
23228;SDS011;11783;50.350;6.576;2022-12-18T02:03:43;16.38;;;7.07;;
23228;SDS011;11783;50.350;6.576;2022-12-18T02:06:15;18.50;;;7.40;;
23228;SDS011;11783;50.350;6.576;2022-12-18T02:08:48;11.75;;;6.05;;
23228;SDS011;11783;50.350;6.576;2022-12-18T02:22:26;19.77;;;8.10;;
23228;SDS011;11783;50.350;6.576;2022-12-18T02:27:59;20.42;;;7.57;;
23228;SDS011;11783;50.350;6.576;2022-12-18T02:30:27;17.30;;;7.63;;
23228;SDS011;11783;50.350;6.576;2022-12-18T02:32:55;16.52;;;6.97;;
23228;SDS011;11783;50.350;6.576;2022-12-18T02:35:24;16.52;;;7.90;;
23228;SDS011;11783;50.350;6.576;2022-12-18T02:37:55;18.40;;;7.70;;
23228;SDS011;11783;50.350;6.576;2022-12-18T02:40:23;15.18;;;6.40;;
23228;SDS011;11783;50.350;6.576;2022-12-18T02:42:50;20.42;;;8.32;;
23228;SDS011;11783;50.350;6.576;2022-12-18T02:45:16;21.67;;;7.78;;
23228;SDS011;11783;50.350;6.576;2022-12-18T02:47:42;19.15;;;8.32;;
23228;SDS011;11783;50.350;6.576;2022-12-18T02:58:40;15.70;;;6.82;;
23228;SDS011;11783;50.350;6.576;2022-12-18T03:03:39;13.43;;;7.18;;
23228;SDS011;11783;50.350;6.576;2022-12-18T03:08:47;15.38;;;6.90;;
23228;SDS011;11783;50.350;6.576;2022-12-18T03:11:16;11.55;;;5.82;;
23228;SDS011;11783;50.350;6.576;2022-12-18T03:14:01;15.73;;;7.20;;
23228;SDS011;11783;50.350;6.576;2022-12-18T03:16:30;19.13;;;7.18;;
23228;SDS011;11783;50.350;6.576;2022-12-18T03:18:57;14.68;;;6.47;;
23228;SDS011;11783;50.350;6.576;2022-12-18T03:21:27;13.95;;;6.47;;
23228;SDS011;11783;50.350;6.576;2022-12-18T03:23:58;16.48;;;7.25;;
23228;SDS011;11783;50.350;6.576;2022-12-18T03:26:24;19.73;;;7.28;;
23228;SDS011;11783;50.350;6.576;2022-12-18T03:28:53;13.95;;;7.10;;
23228;SDS011;11783;50.350;6.576;2022-12-18T03:31:23;14.60;;;6.10;;
23228;SDS011;11783;50.350;6.576;2022-12-18T03:33:52;14.60;;;6.30;;
23228;SDS011;11783;50.350;6.576;2022-12-18T03:36:19;15.52;;;6.00;;
23228;SDS011;11783;50.350;6.576;2022-12-18T03:38:45;13.60;;;6.63;;
23228;SDS011;11783;50.350;6.576;2022-12-18T03:41:18;14.32;;;6.43;;
23228;SDS011;11783;50.350;6.576;2022-12-18T03:43:55;14.38;;;6.18;;
23228;SDS011;11783;50.350;6.576;2022-12-18T03:46:28;11.27;;;5.53;;
23228;SDS011;11783;50.350;6.576;2022-12-18T03:49:04;12.35;;;5.53;;
23228;SDS011;11783;50.350;6.576;2022-12-18T03:51:41;13.50;;;5.85;;
23228;SDS011;11783;50.350;6.576;2022-12-18T03:54:33;15.90;;;6.05;;
23228;SDS011;11783;50.350;6.576;2022-12-18T03:57:05;11.98;;;5.72;;
23228;SDS011;11783;50.350;6.576;2022-12-18T03:59:33;16.55;;;6.57;;
23228;SDS011;11783;50.350;6.576;2022-12-18T04:02:01;14.63;;;6.10;;
23228;SDS011;11783;50.350;6.576;2022-12-18T04:04:28;13.68;;;7.20;;
23228;SDS011;11783;50.350;6.576;2022-12-18T04:06:56;14.68;;;6.50;;
23228;SDS011;11783;50.350;6.576;2022-12-18T04:09:23;15.18;;;6.32;;
23228;SDS011;11783;50.350;6.576;2022-12-18T04:11:49;12.77;;;5.65;;
23228;SDS011;11783;50.350;6.576;2022-12-18T04:14:14;14.10;;;6.65;;
23228;SDS011;11783;50.350;6.576;2022-12-18T04:16:39;12.63;;;5.90;;
23228;SDS011;11783;50.350;6.576;2022-12-18T04:19:04;13.57;;;6.22;;
23228;SDS011;11783;50.350;6.576;2022-12-18T04:21:30;13.15;;;6.28;;
23228;SDS011;11783;50.350;6.576;2022-12-18T04:23:55;14.07;;;6.30;;
23228;SDS011;11783;50.350;6.576;2022-12-18T04:26:21;15.95;;;6.63;;
23228;SDS011;11783;50.350;6.576;2022-12-18T04:28:47;17.73;;;6.78;;
23228;SDS011;11783;50.350;6.576;2022-12-18T04:31:12;18.80;;;7.00;;
23228;SDS011;11783;50.350;6.576;2022-12-18T04:33:37;13.82;;;6.22;;
23228;SDS011;11783;50.350;6.576;2022-12-18T04:36:03;12.75;;;6.13;;
23228;SDS011;11783;50.350;6.576;2022-12-18T04:38:30;11.95;;;5.30;;
23228;SDS011;11783;50.350;6.576;2022-12-18T04:40:55;13.30;;;6.28;;
23228;SDS011;11783;50.350;6.576;2022-12-18T04:43:20;14.20;;;7.00;;
23228;SDS011;11783;50.350;6.576;2022-12-18T04:45:45;13.65;;;5.82;;
23228;SDS011;11783;50.350;6.576;2022-12-18T04:48:11;11.02;;;6.00;;
23228;SDS011;11783;50.350;6.576;2022-12-18T04:50:36;12.60;;;6.05;;
23228;SDS011;11783;50.350;6.576;2022-12-18T04:53:01;15.60;;;6.05;;
23228;SDS011;11783;50.350;6.576;2022-12-18T04:55:27;12.52;;;6.13;;
23228;SDS011;11783;50.350;6.576;2022-12-18T04:57:52;11.48;;;5.68;;
23228;SDS011;11783;50.350;6.576;2022-12-18T05:00:19;11.27;;;5.80;;
23228;SDS011;11783;50.350;6.576;2022-12-18T05:02:46;10.77;;;5.72;;
23228;SDS011;11783;50.350;6.576;2022-12-18T05:05:11;12.20;;;5.30;;
23228;SDS011;11783;50.350;6.576;2022-12-18T05:07:37;11.85;;;6.03;;
23228;SDS011;11783;50.350;6.576;2022-12-18T05:10:02;11.75;;;6.20;;
23228;SDS011;11783;50.350;6.576;2022-12-18T05:12:32;13.48;;;5.90;;
23228;SDS011;11783;50.350;6.576;2022-12-18T05:14:57;12.95;;;5.57;;
23228;SDS011;11783;50.350;6.576;2022-12-18T05:17:23;12.63;;;5.55;;
23228;SDS011;11783;50.350;6.576;2022-12-18T05:19:48;15.65;;;6.60;;
23228;SDS011;11783;50.350;6.576;2022-12-18T05:22:13;13.10;;;6.40;;
23228;SDS011;11783;50.350;6.576;2022-12-18T05:24:39;12.82;;;6.10;;
23228;SDS011;11783;50.350;6.576;2022-12-18T05:27:04;15.40;;;6.35;;
23228;SDS011;11783;50.350;6.576;2022-12-18T05:29:29;14.07;;;5.35;;
23228;SDS011;11783;50.350;6.576;2022-12-18T05:31:55;16.25;;;6.35;;
23228;SDS011;11783;50.350;6.576;2022-12-18T05:34:20;10.07;;;5.38;;
23228;SDS011;11783;50.350;6.576;2022-12-18T05:36:45;12.52;;;5.32;;
23228;SDS011;11783;50.350;6.576;2022-12-18T05:39:11;11.80;;;5.80;;
23228;SDS011;11783;50.350;6.576;2022-12-18T05:41:36;14.45;;;6.00;;
23228;SDS011;11783;50.350;6.576;2022-12-18T05:44:01;13.35;;;6.07;;
23228;SDS011;11783;50.350;6.576;2022-12-18T05:46:27;12.52;;;6.13;;
23228;SDS011;11783;50.350;6.576;2022-12-18T05:48:52;13.57;;;6.45;;
23228;SDS011;11783;50.350;6.576;2022-12-18T05:51:19;14.00;;;6.38;;
23228;SDS011;11783;50.350;6.576;2022-12-18T05:53:49;12.98;;;6.28;;
23228;SDS011;11783;50.350;6.576;2022-12-18T05:56:18;11.43;;;5.30;;
23228;SDS011;11783;50.350;6.576;2022-12-18T05:58:45;11.53;;;5.30;;
23228;SDS011;11783;50.350;6.576;2022-12-18T06:01:15;11.85;;;5.68;;
23228;SDS011;11783;50.350;6.576;2022-12-18T06:03:42;13.75;;;5.72;;
23228;SDS011;11783;50.350;6.576;2022-12-18T06:08:44;11.32;;;4.88;;
23228;SDS011;11783;50.350;6.576;2022-12-18T06:11:10;10.77;;;5.55;;
23228;SDS011;11783;50.350;6.576;2022-12-18T06:13:36;10.98;;;5.43;;
23228;SDS011;11783;50.350;6.576;2022-12-18T06:16:05;12.95;;;6.13;;
23228;SDS011;11783;50.350;6.576;2022-12-18T06:18:31;12.77;;;6.03;;
23228;SDS011;11783;50.350;6.576;2022-12-18T06:20:57;12.05;;;6.28;;
23228;SDS011;11783;50.350;6.576;2022-12-18T06:23:22;12.57;;;5.47;;
23228;SDS011;11783;50.350;6.576;2022-12-18T06:25:48;16.95;;;5.57;;
23228;SDS011;11783;50.350;6.576;2022-12-18T06:28:13;12.68;;;5.50;;
23228;SDS011;11783;50.350;6.576;2022-12-18T06:30:39;12.40;;;5.65;;
23228;SDS011;11783;50.350;6.576;2022-12-18T06:33:04;12.82;;;6.57;;
23228;SDS011;11783;50.350;6.576;2022-12-18T06:35:29;13.48;;;6.60;;
23228;SDS011;11783;50.350;6.576;2022-12-18T06:37:56;23.63;;;10.30;;
23228;SDS011;11783;50.350;6.576;2022-12-18T06:40:21;25.48;;;11.13;;
23228;SDS011;11783;50.350;6.576;2022-12-18T06:42:46;25.25;;;10.90;;
23228;SDS011;11783;50.350;6.576;2022-12-18T06:45:15;21.95;;;10.20;;
23228;SDS011;11783;50.350;6.576;2022-12-18T06:47:40;20.33;;;9.75;;
23228;SDS011;11783;50.350;6.576;2022-12-18T06:50:05;24.65;;;8.70;;
23228;SDS011;11783;50.350;6.576;2022-12-18T06:52:31;18.92;;;7.63;;
23228;SDS011;11783;50.350;6.576;2022-12-18T06:54:57;13.65;;;6.25;;
23228;SDS011;11783;50.350;6.576;2022-12-18T06:57:22;11.82;;;6.10;;
23228;SDS011;11783;50.350;6.576;2022-12-18T06:59:48;13.23;;;5.55;;
23228;SDS011;11783;50.350;6.576;2022-12-18T07:02:13;11.50;;;5.88;;
23228;SDS011;11783;50.350;6.576;2022-12-18T07:04:39;12.35;;;5.75;;
23228;SDS011;11783;50.350;6.576;2022-12-18T07:07:04;10.95;;;6.00;;
23228;SDS011;11783;50.350;6.576;2022-12-18T07:09:30;14.13;;;6.30;;
23228;SDS011;11783;50.350;6.576;2022-12-18T07:11:55;13.27;;;6.07;;
23228;SDS011;11783;50.350;6.576;2022-12-18T07:14:20;10.90;;;5.45;;
23228;SDS011;11783;50.350;6.576;2022-12-18T07:16:46;14.15;;;5.88;;
23228;SDS011;11783;50.350;6.576;2022-12-18T07:19:11;14.15;;;5.90;;
23228;SDS011;11783;50.350;6.576;2022-12-18T07:21:36;13.88;;;6.00;;
23228;SDS011;11783;50.350;6.576;2022-12-18T07:24:02;16.92;;;6.45;;
23228;SDS011;11783;50.350;6.576;2022-12-18T07:26:27;14.25;;;6.70;;
23228;SDS011;11783;50.350;6.576;2022-12-18T07:28:54;17.08;;;7.05;;
23228;SDS011;11783;50.350;6.576;2022-12-18T07:31:21;17.25;;;7.00;;
23228;SDS011;11783;50.350;6.576;2022-12-18T07:33:47;17.02;;;6.93;;
23228;SDS011;11783;50.350;6.576;2022-12-18T07:36:13;17.67;;;6.18;;
23228;SDS011;11783;50.350;6.576;2022-12-18T07:38:38;14.82;;;6.50;;
23228;SDS011;11783;50.350;6.576;2022-12-18T07:41:05;12.85;;;5.97;;
23228;SDS011;11783;50.350;6.576;2022-12-18T07:43:33;15.98;;;6.70;;
23228;SDS011;11783;50.350;6.576;2022-12-18T07:45:59;16.42;;;6.65;;
23228;SDS011;11783;50.350;6.576;2022-12-18T07:48:25;16.15;;;6.68;;
23228;SDS011;11783;50.350;6.576;2022-12-18T07:50:50;30.63;;;10.77;;
23228;SDS011;11783;50.350;6.576;2022-12-18T07:53:15;30.23;;;11.48;;
23228;SDS011;11783;50.350;6.576;2022-12-18T07:55:41;17.73;;;8.32;;
23228;SDS011;11783;50.350;6.576;2022-12-18T07:58:08;27.23;;;10.48;;
23228;SDS011;11783;50.350;6.576;2022-12-18T08:00:34;40.45;;;15.63;;
23228;SDS011;11783;50.350;6.576;2022-12-18T08:02:59;51.72;;;18.10;;
23228;SDS011;11783;50.350;6.576;2022-12-18T08:05:25;47.03;;;18.67;;
23228;SDS011;11783;50.350;6.576;2022-12-18T08:07:51;39.30;;;14.88;;
23228;SDS011;11783;50.350;6.576;2022-12-18T08:10:16;31.98;;;12.82;;
23228;SDS011;11783;50.350;6.576;2022-12-18T08:12:42;29.27;;;11.38;;
23228;SDS011;11783;50.350;6.576;2022-12-18T08:15:07;29.17;;;12.18;;
23228;SDS011;11783;50.350;6.576;2022-12-18T08:17:33;31.42;;;14.48;;
23228;SDS011;11783;50.350;6.576;2022-12-18T08:19:58;54.30;;;22.50;;
23228;SDS011;11783;50.350;6.576;2022-12-18T08:22:24;48.03;;;20.92;;
23228;SDS011;11783;50.350;6.576;2022-12-18T08:24:49;62.50;;;25.85;;
23228;SDS011;11783;50.350;6.576;2022-12-18T08:27:14;51.42;;;22.50;;
23228;SDS011;11783;50.350;6.576;2022-12-18T08:29:40;44.15;;;19.20;;
23228;SDS011;11783;50.350;6.576;2022-12-18T08:32:05;25.35;;;12.95;;
23228;SDS011;11783;50.350;6.576;2022-12-18T08:34:30;28.50;;;12.57;;
23228;SDS011;11783;50.350;6.576;2022-12-18T08:36:56;22.35;;;11.70;;
23228;SDS011;11783;50.350;6.576;2022-12-18T08:39:21;24.83;;;11.50;;
23228;SDS011;11783;50.350;6.576;2022-12-18T08:41:46;20.42;;;10.48;;
23228;SDS011;11783;50.350;6.576;2022-12-18T08:44:32;18.55;;;10.20;;
23228;SDS011;11783;50.350;6.576;2022-12-18T08:47:03;19.00;;;10.07;;
23228;SDS011;11783;50.350;6.576;2022-12-18T08:49:29;23.75;;;12.15;;
23228;SDS011;11783;50.350;6.576;2022-12-18T08:51:55;24.45;;;11.20;;
23228;SDS011;11783;50.350;6.576;2022-12-18T08:54:22;25.98;;;11.27;;
23228;SDS011;11783;50.350;6.576;2022-12-18T08:56:47;26.13;;;13.10;;
23228;SDS011;11783;50.350;6.576;2022-12-18T08:59:12;23.60;;;11.95;;
23228;SDS011;11783;50.350;6.576;2022-12-18T09:01:38;23.70;;;11.70;;
23228;SDS011;11783;50.350;6.576;2022-12-18T09:04:03;20.92;;;10.60;;
23228;SDS011;11783;50.350;6.576;2022-12-18T09:06:28;22.05;;;10.88;;
23228;SDS011;11783;50.350;6.576;2022-12-18T09:08:54;19.77;;;9.73;;
23228;SDS011;11783;50.350;6.576;2022-12-18T09:11:26;19.77;;;8.68;;
23228;SDS011;11783;50.350;6.576;2022-12-18T09:13:53;20.27;;;8.77;;
23228;SDS011;11783;50.350;6.576;2022-12-18T09:16:19;18.80;;;8.52;;
23228;SDS011;11783;50.350;6.576;2022-12-18T09:18:45;20.45;;;9.35;;
23228;SDS011;11783;50.350;6.576;2022-12-18T09:21:12;19.10;;;9.25;;
23228;SDS011;11783;50.350;6.576;2022-12-18T09:23:40;22.13;;;9.25;;
23228;SDS011;11783;50.350;6.576;2022-12-18T09:26:05;19.48;;;9.00;;
23228;SDS011;11783;50.350;6.576;2022-12-18T09:28:31;20.63;;;9.40;;
23228;SDS011;11783;50.350;6.576;2022-12-18T09:30:57;22.02;;;9.73;;
23228;SDS011;11783;50.350;6.576;2022-12-18T09:33:23;20.67;;;9.75;;
23228;SDS011;11783;50.350;6.576;2022-12-18T09:35:48;21.00;;;9.77;;
23228;SDS011;11783;50.350;6.576;2022-12-18T09:38:15;23.42;;;10.38;;
23228;SDS011;11783;50.350;6.576;2022-12-18T09:40:44;23.77;;;10.90;;
23228;SDS011;11783;50.350;6.576;2022-12-18T09:43:22;29.93;;;12.43;;
23228;SDS011;11783;50.350;6.576;2022-12-18T09:46:02;28.23;;;12.32;;
23228;SDS011;11783;50.350;6.576;2022-12-18T09:48:38;28.65;;;12.60;;
23228;SDS011;11783;50.350;6.576;2022-12-18T09:51:11;30.38;;;13.13;;
23228;SDS011;11783;50.350;6.576;2022-12-18T09:53:40;34.78;;;13.95;;
23228;SDS011;11783;50.350;6.576;2022-12-18T09:56:12;22.75;;;11.45;;
23228;SDS011;11783;50.350;6.576;2022-12-18T10:01:17;30.10;;;13.90;;
23228;SDS011;11783;50.350;6.576;2022-12-18T10:03:46;30.75;;;14.38;;
23228;SDS011;11783;50.350;6.576;2022-12-18T10:14:43;31.95;;;14.25;;
23228;SDS011;11783;50.350;6.576;2022-12-18T10:17:51;30.77;;;14.30;;
23228;SDS011;11783;50.350;6.576;2022-12-18T10:23:04;34.38;;;15.07;;
23228;SDS011;11783;50.350;6.576;2022-12-18T10:28:10;28.88;;;14.82;;
23228;SDS011;11783;50.350;6.576;2022-12-18T10:30:41;33.08;;;15.63;;
23228;SDS011;11783;50.350;6.576;2022-12-18T10:33:22;30.83;;;14.50;;
23228;SDS011;11783;50.350;6.576;2022-12-18T10:35:52;29.58;;;14.68;;
23228;SDS011;11783;50.350;6.576;2022-12-18T10:40:50;29.83;;;14.70;;
23228;SDS011;11783;50.350;6.576;2022-12-18T10:43:19;29.10;;;14.52;;
23228;SDS011;11783;50.350;6.576;2022-12-18T10:45:57;27.70;;;12.43;;
23228;SDS011;11783;50.350;6.576;2022-12-18T10:48:26;20.52;;;10.98;;
23228;SDS011;11783;50.350;6.576;2022-12-18T10:50:52;21.17;;;10.95;;
23228;SDS011;11783;50.350;6.576;2022-12-18T10:53:23;22.08;;;10.63;;
23228;SDS011;11783;50.350;6.576;2022-12-18T10:55:53;24.58;;;10.82;;
23228;SDS011;11783;50.350;6.576;2022-12-18T10:58:22;23.98;;;11.55;;
23228;SDS011;11783;50.350;6.576;2022-12-18T11:03:58;23.52;;;12.30;;
23228;SDS011;11783;50.350;6.576;2022-12-18T11:06:26;22.65;;;11.48;;
23228;SDS011;11783;50.350;6.576;2022-12-18T11:09:02;21.70;;;11.30;;
23228;SDS011;11783;50.350;6.576;2022-12-18T11:11:27;23.00;;;11.77;;
23228;SDS011;11783;50.350;6.576;2022-12-18T11:16:24;21.85;;;11.20;;
23228;SDS011;11783;50.350;6.576;2022-12-18T11:18:51;22.70;;;11.30;;
23228;SDS011;11783;50.350;6.576;2022-12-18T11:21:16;22.35;;;10.90;;
23228;SDS011;11783;50.350;6.576;2022-12-18T11:23:50;19.90;;;10.68;;
23228;SDS011;11783;50.350;6.576;2022-12-18T11:26:17;19.63;;;10.63;;
23228;SDS011;11783;50.350;6.576;2022-12-18T11:31:22;23.42;;;11.70;;
23228;SDS011;11783;50.350;6.576;2022-12-18T11:34:02;19.20;;;10.55;;
23228;SDS011;11783;50.350;6.576;2022-12-18T11:36:39;22.52;;;11.48;;
23228;SDS011;11783;50.350;6.576;2022-12-18T11:39:18;24.23;;;11.23;;
23228;SDS011;11783;50.350;6.576;2022-12-18T11:44:42;20.50;;;10.40;;
23228;SDS011;11783;50.350;6.576;2022-12-18T11:47:27;20.63;;;10.90;;
23228;SDS011;11783;50.350;6.576;2022-12-18T11:49:56;21.98;;;10.77;;
23228;SDS011;11783;50.350;6.576;2022-12-18T11:52:31;23.23;;;11.73;;
23228;SDS011;11783;50.350;6.576;2022-12-18T11:55:15;23.98;;;11.65;;
23228;SDS011;11783;50.350;6.576;2022-12-18T12:00:51;20.83;;;11.55;;
23228;SDS011;11783;50.350;6.576;2022-12-18T12:06:56;22.42;;;10.95;;
23228;SDS011;11783;50.350;6.576;2022-12-18T12:35:29;22.08;;;11.05;;
23228;SDS011;11783;50.350;6.576;2022-12-18T12:41:02;22.40;;;11.35;;
23228;SDS011;11783;50.350;6.576;2022-12-18T12:43:51;22.35;;;11.50;;
23228;SDS011;11783;50.350;6.576;2022-12-18T12:49:24;19.40;;;10.10;;
23228;SDS011;11783;50.350;6.576;2022-12-18T12:51:57;22.73;;;11.13;;
23228;SDS011;11783;50.350;6.576;2022-12-18T12:54:32;19.98;;;11.23;;
23228;SDS011;11783;50.350;6.576;2022-12-18T12:57:01;21.55;;;10.98;;
23228;SDS011;11783;50.350;6.576;2022-12-18T13:02:39;18.58;;;10.05;;
23228;SDS011;11783;50.350;6.576;2022-12-18T13:05:25;21.00;;;10.73;;
23228;SDS011;11783;50.350;6.576;2022-12-18T13:08:10;17.83;;;9.57;;
23228;SDS011;11783;50.350;6.576;2022-12-18T13:10:41;19.25;;;9.73;;
23228;SDS011;11783;50.350;6.576;2022-12-18T13:13:11;19.05;;;9.75;;
23228;SDS011;11783;50.350;6.576;2022-12-18T13:15:39;21.20;;;10.25;;
23228;SDS011;11783;50.350;6.576;2022-12-18T13:18:17;17.27;;;9.43;;
23228;SDS011;11783;50.350;6.576;2022-12-18T13:21:01;16.60;;;9.43;;
23228;SDS011;11783;50.350;6.576;2022-12-18T13:23:39;17.88;;;9.35;;
23228;SDS011;11783;50.350;6.576;2022-12-18T13:28:58;19.90;;;9.93;;
23228;SDS011;11783;50.350;6.576;2022-12-18T13:34:23;18.17;;;10.38;;
23228;SDS011;11783;50.350;6.576;2022-12-18T13:36:53;19.98;;;10.45;;
23228;SDS011;11783;50.350;6.576;2022-12-18T13:39:21;17.15;;;9.43;;
23228;SDS011;11783;50.350;6.576;2022-12-18T13:44:36;18.88;;;9.98;;
23228;SDS011;11783;50.350;6.576;2022-12-18T13:50:36;16.90;;;9.55;;
23228;SDS011;11783;50.350;6.576;2022-12-18T13:52:58;19.42;;;9.88;;
23228;SDS011;11783;50.350;6.576;2022-12-18T13:58:03;20.27;;;10.60;;
23228;SDS011;11783;50.350;6.576;2022-12-18T14:00:31;19.00;;;9.70;;
23228;SDS011;11783;50.350;6.576;2022-12-18T14:02:59;19.00;;;10.05;;
23228;SDS011;11783;50.350;6.576;2022-12-18T14:05:31;20.02;;;10.23;;
23228;SDS011;11783;50.350;6.576;2022-12-18T14:08:06;21.17;;;10.40;;
23228;SDS011;11783;50.350;6.576;2022-12-18T14:10:35;19.70;;;10.65;;
23228;SDS011;11783;50.350;6.576;2022-12-18T14:13:05;21.42;;;10.43;;
23228;SDS011;11783;50.350;6.576;2022-12-18T14:18:24;19.52;;;9.98;;
23228;SDS011;11783;50.350;6.576;2022-12-18T14:20:55;19.30;;;10.20;;
23228;SDS011;11783;50.350;6.576;2022-12-18T14:23:25;15.73;;;7.53;;
23228;SDS011;11783;50.350;6.576;2022-12-18T14:26:01;18.77;;;9.95;;
23228;SDS011;11783;50.350;6.576;2022-12-18T14:28:28;20.90;;;10.95;;
23228;SDS011;11783;50.350;6.576;2022-12-18T14:30:54;18.35;;;10.00;;
23228;SDS011;11783;50.350;6.576;2022-12-18T14:33:26;19.25;;;10.75;;
23228;SDS011;11783;50.350;6.576;2022-12-18T14:35:57;21.13;;;11.48;;
23228;SDS011;11783;50.350;6.576;2022-12-18T14:38:26;19.67;;;10.25;;
23228;SDS011;11783;50.350;6.576;2022-12-18T14:40:58;19.33;;;11.30;;
23228;SDS011;11783;50.350;6.576;2022-12-18T14:45:51;22.45;;;11.30;;
23228;SDS011;11783;50.350;6.576;2022-12-18T14:48:19;21.73;;;12.10;;
23228;SDS011;11783;50.350;6.576;2022-12-18T14:50:54;22.92;;;12.07;;
23228;SDS011;11783;50.350;6.576;2022-12-18T14:53:23;22.60;;;11.77;;
23228;SDS011;11783;50.350;6.576;2022-12-18T14:55:56;23.70;;;12.25;;
23228;SDS011;11783;50.350;6.576;2022-12-18T14:58:22;27.58;;;13.65;;
23228;SDS011;11783;50.350;6.576;2022-12-18T15:00:47;25.45;;;12.82;;
23228;SDS011;11783;50.350;6.576;2022-12-18T15:03:15;29.40;;;14.27;;
23228;SDS011;11783;50.350;6.576;2022-12-18T15:05:45;21.30;;;11.25;;
23228;SDS011;11783;50.350;6.576;2022-12-18T15:08:30;29.10;;;13.27;;
23228;SDS011;11783;50.350;6.576;2022-12-18T15:11:01;19.67;;;10.52;;
23228;SDS011;11783;50.350;6.576;2022-12-18T15:13:28;20.65;;;10.15;;
23228;SDS011;11783;50.350;6.576;2022-12-18T15:16:00;21.05;;;10.82;;
23228;SDS011;11783;50.350;6.576;2022-12-18T15:18:32;21.83;;;10.68;;
23228;SDS011;11783;50.350;6.576;2022-12-18T15:21:07;20.65;;;11.35;;
23228;SDS011;11783;50.350;6.576;2022-12-18T15:23:36;22.13;;;10.80;;
23228;SDS011;11783;50.350;6.576;2022-12-18T15:26:03;20.35;;;10.45;;
23228;SDS011;11783;50.350;6.576;2022-12-18T15:36:19;15.35;;;8.65;;
23228;SDS011;11783;50.350;6.576;2022-12-18T15:38:46;19.42;;;10.95;;
23228;SDS011;11783;50.350;6.576;2022-12-18T15:41:20;22.65;;;11.32;;
23228;SDS011;11783;50.350;6.576;2022-12-18T15:43:47;22.63;;;10.57;;
23228;SDS011;11783;50.350;6.576;2022-12-18T15:46:15;21.92;;;11.45;;
23228;SDS011;11783;50.350;6.576;2022-12-18T15:51:16;26.13;;;11.77;;
23228;SDS011;11783;50.350;6.576;2022-12-18T15:53:43;24.33;;;11.95;;
23228;SDS011;11783;50.350;6.576;2022-12-18T15:56:10;22.08;;;11.57;;
23228;SDS011;11783;50.350;6.576;2022-12-18T16:01:24;24.17;;;12.23;;
23228;SDS011;11783;50.350;6.576;2022-12-18T16:03:53;24.50;;;12.95;;
23228;SDS011;11783;50.350;6.576;2022-12-18T16:06:19;28.08;;;13.00;;
23228;SDS011;11783;50.350;6.576;2022-12-18T16:08:45;26.27;;;12.32;;
23228;SDS011;11783;50.350;6.576;2022-12-18T16:11:29;25.52;;;13.30;;
23228;SDS011;11783;50.350;6.576;2022-12-18T16:14:06;27.77;;;13.25;;
23228;SDS011;11783;50.350;6.576;2022-12-18T16:16:58;27.15;;;13.07;;
23228;SDS011;11783;50.350;6.576;2022-12-18T16:19:25;27.27;;;13.27;;
23228;SDS011;11783;50.350;6.576;2022-12-18T16:21:51;27.85;;;13.43;;
23228;SDS011;11783;50.350;6.576;2022-12-18T16:24:23;28.85;;;13.52;;
23228;SDS011;11783;50.350;6.576;2022-12-18T16:26:50;27.50;;;14.35;;
23228;SDS011;11783;50.350;6.576;2022-12-18T16:29:17;27.98;;;13.65;;
23228;SDS011;11783;50.350;6.576;2022-12-18T16:31:43;27.98;;;14.07;;
23228;SDS011;11783;50.350;6.576;2022-12-18T16:36:50;26.88;;;13.55;;
23228;SDS011;11783;50.350;6.576;2022-12-18T16:39:16;27.00;;;13.70;;
23228;SDS011;11783;50.350;6.576;2022-12-18T16:41:42;29.92;;;15.02;;
23228;SDS011;11783;50.350;6.576;2022-12-18T16:44:08;26.73;;;13.70;;
23228;SDS011;11783;50.350;6.576;2022-12-18T16:46:33;29.45;;;14.32;;
23228;SDS011;11783;50.350;6.576;2022-12-18T16:48:59;28.60;;;14.60;;
23228;SDS011;11783;50.350;6.576;2022-12-18T16:51:25;30.65;;;15.02;;
23228;SDS011;11783;50.350;6.576;2022-12-18T16:53:52;31.67;;;15.90;;
23228;SDS011;11783;50.350;6.576;2022-12-18T16:56:18;31.17;;;15.02;;